createdAt,value
2018-11-03T00:00:42.954Z,9.00
2018-11-03T00:03:12.348Z,9.00
2018-11-03T00:05:41.582Z,9.10
2018-11-03T00:08:10.927Z,9.10
2018-11-03T00:10:40.266Z,9.00
2018-11-03T00:13:09.475Z,9.10
2018-11-03T00:15:38.720Z,9.10
2018-11-03T00:18:08.281Z,9.10
2018-11-03T00:20:37.731Z,9.10
2018-11-03T00:23:07.194Z,9.00
2018-11-03T00:25:36.331Z,9.00
2018-11-03T00:28:05.490Z,9.10
2018-11-03T00:30:34.609Z,9.10
2018-11-03T00:33:03.806Z,9.10
2018-11-03T00:35:33.077Z,9.00
2018-11-03T00:38:02.419Z,8.90
2018-11-03T00:40:31.705Z,8.90
2018-11-03T00:43:01.002Z,8.80
2018-11-03T00:45:30.308Z,8.90
2018-11-03T00:47:59.580Z,9.00
2018-11-03T00:50:28.695Z,8.90
2018-11-03T00:52:57.983Z,8.90
2018-11-03T00:55:27.199Z,8.90
2018-11-03T00:57:56.472Z,8.90
2018-11-03T01:00:25.809Z,9.00
2018-11-03T01:02:55.095Z,9.00
2018-11-03T01:05:24.409Z,8.90
2018-11-03T01:07:53.599Z,9.00
2018-11-03T01:10:22.763Z,9.00
2018-11-03T01:12:51.909Z,8.90
2018-11-03T01:15:21.040Z,9.00
2018-11-03T01:17:50.292Z,9.00
2018-11-03T01:20:19.556Z,9.00
2018-11-03T01:22:48.907Z,9.00
2018-11-03T01:25:18.282Z,9.00
2018-11-03T01:27:47.489Z,9.10
2018-11-03T01:30:17.279Z,9.10
2018-11-03T01:32:46.595Z,9.00
2018-11-03T01:35:15.899Z,9.00
2018-11-03T01:37:45.174Z,9.00
2018-11-03T01:40:14.669Z,9.00
2018-11-03T01:42:43.870Z,9.00
2018-11-03T01:45:13.027Z,9.10
2018-11-03T01:47:42.418Z,9.00
2018-11-03T01:50:12.574Z,8.90
2018-11-03T01:52:42.180Z,8.90
2018-11-03T01:55:11.419Z,8.90
2018-11-03T01:57:40.715Z,8.90
2018-11-03T02:00:10.814Z,8.90
2018-11-03T02:02:40.155Z,8.90
2018-11-03T02:05:10.134Z,8.90
2018-11-03T02:07:39.463Z,9.00
2018-11-03T02:10:09.739Z,9.00
2018-11-03T02:12:38.883Z,9.10
2018-11-03T02:15:08.526Z,9.10
2018-11-03T02:17:37.878Z,9.00
2018-11-03T02:20:08.173Z,9.00
2018-11-03T02:22:37.811Z,9.00
2018-11-03T02:25:07.217Z,9.10
2018-11-03T02:27:36.519Z,9.20
2018-11-03T02:30:06.268Z,9.10
2018-11-03T02:32:35.531Z,9.10
2018-11-03T02:35:05.140Z,9.10
2018-11-03T02:37:34.338Z,9.00
2018-11-03T02:40:03.689Z,9.00
2018-11-03T02:42:32.800Z,9.00
2018-11-03T02:45:02.036Z,9.10
2018-11-03T02:47:31.207Z,9.10
2018-11-03T02:50:00.305Z,9.10
2018-11-03T02:52:29.610Z,9.00
2018-11-03T02:54:58.919Z,9.00
2018-11-03T02:57:28.216Z,9.00
2018-11-03T02:59:57.498Z,8.90
2018-11-03T03:02:26.715Z,8.80
2018-11-03T03:04:55.887Z,8.90
2018-11-03T03:07:25.022Z,8.90
2018-11-03T03:09:54.199Z,9.00
2018-11-03T03:12:23.476Z,9.00
2018-11-03T03:14:52.600Z,9.00
2018-11-03T03:17:21.973Z,9.00
2018-11-03T03:19:51.516Z,9.00
2018-11-03T03:22:20.699Z,9.00
2018-11-03T03:24:49.984Z,9.10
2018-11-03T03:27:19.311Z,9.10
2018-11-03T03:29:48.576Z,9.10
2018-11-03T03:32:17.800Z,9.10
2018-11-03T03:34:47.108Z,9.10
2018-11-03T03:37:16.300Z,9.10
2018-11-03T03:39:45.607Z,9.10
2018-11-03T03:42:14.778Z,9.10
2018-11-03T03:44:43.999Z,9.10
2018-11-03T03:47:13.158Z,9.00
2018-11-03T03:49:42.262Z,9.00
2018-11-03T03:52:11.583Z,9.10
2018-11-03T03:54:40.832Z,9.10
2018-11-03T03:57:10.079Z,9.10
2018-11-03T03:59:39.453Z,9.00
2018-11-03T04:02:08.579Z,9.00
2018-11-03T04:04:37.779Z,9.00
2018-11-03T04:07:07.258Z,9.10
2018-11-03T04:09:36.463Z,9.10
2018-11-03T04:12:05.560Z,9.10
2018-11-03T04:14:34.883Z,9.10
2018-11-03T04:17:04.187Z,9.10
2018-11-03T04:19:33.549Z,8.90
2018-11-03T04:22:02.576Z,9.00
2018-11-03T04:24:31.735Z,9.00
2018-11-03T04:27:00.875Z,9.00
2018-11-03T04:29:30.162Z,9.00
2018-11-03T04:31:59.459Z,9.00
2018-11-03T04:34:28.659Z,9.00
2018-11-03T04:36:57.927Z,9.10
2018-11-03T04:39:27.067Z,9.00
2018-11-03T04:41:56.197Z,9.00
2018-11-03T04:44:25.370Z,8.80
2018-11-03T04:46:54.528Z,8.60
2018-11-03T04:49:23.617Z,8.70
2018-11-03T04:51:52.840Z,8.80
2018-11-03T04:54:22.206Z,8.60
2018-11-03T04:56:51.443Z,8.70
2018-11-03T04:59:20.736Z,8.80
2018-11-03T05:01:50.008Z,8.80
2018-11-03T05:04:19.279Z,8.80
2018-11-03T05:06:48.460Z,8.90
2018-11-03T05:09:17.714Z,8.90
2018-11-03T05:11:46.925Z,8.90
2018-11-03T05:14:16.231Z,8.90
2018-11-03T05:16:45.628Z,8.90
2018-11-03T05:19:14.801Z,8.90
2018-11-03T05:21:43.927Z,8.90
2018-11-03T05:24:13.093Z,9.00
2018-11-03T05:26:42.210Z,9.00
2018-11-03T05:29:11.407Z,9.10
2018-11-03T05:31:40.589Z,9.00
2018-11-03T05:34:10.070Z,9.10
2018-11-03T05:36:39.288Z,8.90
2018-11-03T05:39:10.600Z,8.80
2018-11-03T05:41:39.757Z,8.90
2018-11-03T05:44:08.951Z,8.90
2018-11-03T05:46:38.216Z,8.90
2018-11-03T05:49:07.427Z,8.80
2018-11-03T05:51:36.857Z,8.70
2018-11-03T05:54:06.641Z,8.60
2018-11-03T05:56:35.913Z,8.50
2018-11-03T05:59:05.346Z,8.60
2018-11-03T06:01:34.467Z,8.50
2018-11-03T06:04:03.754Z,8.60
2018-11-03T06:06:33.033Z,8.70
2018-11-03T06:09:02.468Z,8.70
2018-11-03T06:11:31.567Z,8.80
2018-11-03T06:14:00.758Z,8.80
2018-11-03T06:16:29.940Z,8.80
2018-11-03T06:18:59.139Z,8.70
2018-11-03T06:21:28.426Z,8.80
2018-11-03T06:23:57.746Z,8.80
2018-11-03T06:26:27.022Z,8.90
2018-11-03T06:28:56.153Z,8.80
2018-11-03T06:31:25.343Z,8.80
2018-11-03T06:33:54.631Z,8.90
2018-11-03T06:36:23.828Z,8.70
2018-11-03T06:38:53.158Z,8.70
2018-11-03T06:41:22.538Z,8.80
2018-11-03T06:43:51.920Z,8.80
2018-11-03T06:46:21.231Z,8.90
2018-11-03T06:48:50.342Z,9.00
2018-11-03T06:51:19.498Z,9.00
2018-11-03T06:53:48.726Z,9.10
2018-11-03T06:56:17.906Z,9.10
2018-11-03T06:58:47.127Z,9.00
2018-11-03T07:01:16.403Z,9.00
2018-11-03T07:03:45.623Z,9.10
2018-11-03T07:06:14.922Z,9.20
2018-11-03T07:08:44.203Z,9.20
2018-11-03T07:11:13.521Z,9.10
2018-11-03T07:13:42.718Z,9.20
2018-11-03T07:16:11.919Z,9.20
2018-11-03T07:18:41.218Z,9.20
2018-11-03T07:21:10.523Z,9.30
2018-11-03T07:23:39.913Z,9.40
2018-11-03T07:26:09.106Z,9.40
2018-11-03T07:28:38.532Z,9.50
2018-11-03T07:31:07.800Z,9.50
2018-11-03T07:33:37.198Z,9.50
2018-11-03T07:36:06.392Z,9.50
2018-11-03T07:38:35.832Z,9.50
2018-11-03T07:41:05.313Z,9.50
2018-11-03T07:43:34.480Z,9.60
2018-11-03T07:46:03.716Z,9.50
2018-11-03T07:48:32.875Z,9.60
2018-11-03T07:51:01.968Z,9.70
2018-11-03T07:53:31.190Z,9.70
2018-11-03T07:56:00.506Z,9.70
2018-11-03T07:58:29.670Z,9.60
2018-11-03T08:00:59.018Z,9.70
2018-11-03T08:03:28.203Z,9.70
2018-11-03T08:05:57.486Z,9.70
2018-11-03T08:08:26.709Z,9.70
2018-11-03T08:10:55.874Z,9.80
2018-11-03T08:13:25.095Z,9.70
2018-11-03T08:15:54.367Z,9.80
2018-11-03T08:18:23.699Z,9.90
2018-11-03T08:20:52.742Z,9.80
2018-11-03T08:23:22.058Z,9.80
2018-11-03T08:25:51.193Z,9.70
2018-11-03T08:28:20.362Z,9.70
2018-11-03T08:30:49.491Z,9.70
2018-11-03T08:33:18.651Z,9.80
2018-11-03T08:35:47.781Z,9.80
2018-11-03T08:38:16.919Z,9.80
2018-11-03T08:40:46.267Z,9.90
2018-11-03T08:43:15.483Z,10.00
2018-11-03T08:45:44.843Z,10.10
2018-11-03T08:48:14.259Z,10.10
2018-11-03T08:50:43.347Z,10.00
2018-11-03T08:53:12.458Z,9.90
2018-11-03T08:55:41.632Z,9.80
2018-11-03T08:58:10.751Z,9.80
2018-11-03T09:00:39.968Z,10.00
2018-11-03T09:03:09.186Z,10.20
2018-11-03T09:05:38.347Z,10.20
2018-11-03T09:08:07.615Z,10.40
2018-11-03T09:10:36.843Z,10.30
2018-11-03T09:13:06.126Z,10.50
2018-11-03T09:15:35.339Z,10.50
2018-11-03T09:18:04.626Z,10.70
2018-11-03T09:20:33.843Z,10.80
2018-11-03T09:23:02.935Z,10.80
2018-11-03T09:25:32.135Z,10.80
2018-11-03T09:28:01.311Z,10.80
2018-11-03T09:30:30.654Z,10.60
2018-11-03T09:32:59.946Z,10.80
2018-11-03T09:35:29.219Z,10.80
2018-11-03T09:37:58.428Z,10.80
2018-11-03T09:40:27.596Z,10.80
2018-11-03T09:42:56.784Z,10.80
2018-11-03T09:45:25.890Z,10.90
2018-11-03T09:47:55.016Z,11.10
2018-11-03T09:50:24.306Z,11.10
2018-11-03T09:52:53.388Z,11.10
2018-11-03T09:55:22.687Z,11.20
2018-11-03T09:57:51.975Z,11.10
2018-11-03T10:00:21.775Z,11.30
2018-11-03T10:02:51.010Z,11.40
2018-11-03T10:05:20.315Z,11.40
2018-11-03T10:07:49.512Z,11.40
2018-11-03T10:10:19.838Z,11.40
2018-11-03T10:12:49.007Z,11.50
2018-11-03T10:15:19.155Z,11.40
2018-11-03T10:17:48.338Z,11.40
2018-11-03T10:20:17.654Z,11.30
2018-11-03T10:22:46.966Z,11.40
2018-11-03T10:25:17.538Z,11.50
2018-11-03T10:27:47.144Z,11.60
2018-11-03T10:30:16.960Z,11.60
2018-11-03T10:32:46.463Z,11.50
2018-11-03T10:35:15.876Z,11.60
2018-11-03T10:37:45.414Z,11.60
2018-11-03T10:40:15.866Z,11.60
2018-11-03T10:42:45.239Z,11.80
2018-11-03T10:45:15.600Z,11.70
2018-11-03T10:47:45.088Z,11.60
2018-11-03T10:50:16.706Z,11.80
2018-11-03T10:52:46.545Z,11.70
2018-11-03T10:55:16.841Z,11.60
2018-11-03T10:57:46.156Z,11.60
2018-11-03T11:00:22.757Z,11.80
2018-11-03T11:02:57.232Z,12.00
2018-11-03T11:05:31.364Z,12.00
2018-11-03T11:08:05.758Z,12.10
2018-11-03T11:10:39.987Z,12.10
2018-11-03T11:13:15.859Z,12.00
2018-11-03T11:15:45.361Z,12.10
2018-11-03T11:18:14.550Z,11.90
2018-11-03T11:20:43.923Z,11.90
2018-11-03T11:23:13.276Z,12.00
2018-11-03T11:25:42.562Z,11.80
2018-11-03T11:28:11.855Z,11.90
2018-11-03T11:30:42.322Z,12.10
2018-11-03T11:33:12.974Z,12.10
2018-11-03T11:35:42.489Z,12.10
2018-11-03T11:38:12.499Z,12.10
2018-11-03T11:40:42.018Z,12.20
2018-11-03T11:43:12.042Z,12.20
2018-11-03T11:45:41.354Z,12.10
2018-11-03T11:48:10.631Z,12.00
2018-11-03T11:50:39.966Z,12.00
2018-11-03T11:53:09.348Z,12.00
2018-11-03T11:55:38.568Z,11.90
2018-11-03T11:58:07.730Z,11.90
2018-11-03T12:00:37.024Z,12.00
2018-11-03T12:03:06.225Z,11.70
2018-11-03T12:05:35.557Z,11.70
2018-11-03T12:08:04.968Z,11.80
2018-11-03T12:10:34.355Z,11.70
2018-11-03T12:13:03.664Z,11.70
2018-11-03T12:15:32.828Z,11.60
2018-11-03T12:18:01.980Z,11.60
2018-11-03T12:20:31.140Z,11.80
2018-11-03T12:23:00.547Z,11.80
2018-11-03T12:25:29.883Z,11.70
2018-11-03T12:27:59.276Z,11.80
2018-11-03T12:30:28.427Z,11.70
2018-11-03T12:32:57.759Z,11.80
2018-11-03T12:35:27.049Z,11.80
2018-11-03T12:37:56.260Z,11.90
2018-11-03T12:40:25.419Z,11.80
2018-11-03T12:42:54.651Z,11.80
2018-11-03T12:45:23.926Z,11.80
2018-11-03T12:47:53.226Z,11.60
2018-11-03T12:50:22.551Z,11.70
2018-11-03T12:52:51.806Z,11.70
2018-11-03T12:55:21.140Z,11.80
2018-11-03T12:57:50.448Z,11.70
2018-11-03T13:00:19.647Z,11.70
2018-11-03T13:02:48.839Z,11.60
2018-11-03T13:05:18.241Z,11.60
2018-11-03T13:07:47.427Z,11.70
2018-11-03T13:10:16.735Z,11.80
2018-11-03T13:12:46.041Z,11.80
2018-11-03T13:15:15.340Z,11.80
2018-11-03T13:17:44.530Z,11.80
2018-11-03T13:20:14.615Z,11.90
2018-11-03T13:22:44.460Z,11.80
2018-11-03T13:25:13.828Z,12.00
2018-11-03T13:27:43.303Z,12.00
2018-11-03T13:30:14.063Z,11.90
2018-11-03T13:32:43.408Z,11.70
2018-11-03T13:35:13.582Z,11.70
2018-11-03T13:37:42.830Z,11.80
2018-11-03T13:40:13.224Z,11.80
2018-11-03T13:42:42.977Z,11.80
2018-11-03T13:45:12.261Z,11.80
2018-11-03T13:47:41.618Z,11.80
2018-11-03T13:50:12.988Z,11.70
2018-11-03T13:52:43.867Z,11.70
2018-11-03T13:55:13.246Z,11.60
2018-11-03T13:57:43.537Z,11.70
2018-11-03T14:00:14.262Z,11.70
2018-11-03T14:02:44.275Z,11.70
2018-11-03T14:05:13.624Z,11.90
2018-11-03T14:07:43.032Z,11.90
2018-11-03T14:10:14.127Z,11.70
2018-11-03T14:12:44.056Z,11.80
2018-11-03T14:15:14.405Z,11.80
2018-11-03T14:17:43.715Z,11.70
2018-11-03T14:20:13.887Z,11.80
2018-11-03T14:22:43.926Z,11.70
2018-11-03T14:25:14.329Z,11.70
2018-11-03T14:27:44.593Z,11.70
2018-11-03T14:30:14.152Z,11.60
2018-11-03T14:32:43.499Z,11.60
2018-11-03T14:35:13.574Z,11.50
2018-11-03T14:37:42.820Z,11.40
2018-11-03T14:40:13.727Z,11.60
2018-11-03T14:42:43.628Z,11.60
2018-11-03T14:45:13.828Z,11.60
2018-11-03T14:47:43.091Z,11.80
2018-11-03T14:50:12.392Z,11.80
2018-11-03T14:52:42.514Z,11.70
2018-11-03T14:55:12.388Z,11.90
2018-11-03T14:57:41.623Z,11.90
2018-11-03T15:00:12.411Z,11.90
2018-11-03T15:02:41.724Z,11.90
2018-11-03T15:05:11.538Z,11.80
2018-11-03T15:07:40.758Z,11.70
2018-11-03T15:10:11.015Z,11.70
2018-11-03T15:12:40.849Z,11.60
2018-11-03T15:15:11.655Z,11.70
2018-11-03T15:17:40.808Z,11.60
2018-11-03T15:20:11.097Z,11.60
2018-11-03T15:22:40.612Z,11.60
2018-11-03T15:25:10.399Z,11.50
2018-11-03T15:27:40.071Z,11.50
2018-11-03T15:30:10.742Z,11.40
2018-11-03T15:32:40.276Z,11.50
2018-11-03T15:35:10.148Z,11.40
2018-11-03T15:37:39.497Z,11.30
2018-11-03T15:40:11.441Z,11.20
2018-11-03T15:42:40.682Z,11.20
2018-11-03T15:45:12.548Z,11.30
2018-11-03T15:47:42.289Z,11.30
2018-11-03T15:50:12.038Z,11.30
2018-11-03T15:52:41.276Z,11.20
2018-11-03T15:55:10.541Z,11.20
2018-11-03T15:57:39.554Z,11.20
2018-11-03T16:00:15.569Z,11.10
2018-11-03T16:02:44.910Z,11.10
2018-11-03T16:05:14.261Z,11.10
2018-11-03T16:07:43.982Z,11.20
2018-11-03T16:10:13.356Z,11.10
2018-11-03T16:12:42.670Z,11.10
2018-11-03T16:15:12.719Z,11.10
2018-11-03T16:17:42.362Z,11.20
2018-11-03T16:20:12.646Z,11.10
2018-11-03T16:22:42.265Z,11.10
2018-11-03T16:25:11.567Z,11.00
2018-11-03T16:27:41.065Z,11.00
2018-11-03T16:30:13.252Z,10.90
2018-11-03T16:32:42.779Z,11.10
2018-11-03T16:35:11.860Z,11.10
2018-11-03T16:37:41.491Z,11.00
2018-11-03T16:40:12.430Z,11.00
2018-11-03T16:42:42.261Z,11.00
2018-11-03T16:45:12.941Z,10.90
2018-11-03T16:47:42.486Z,10.90
2018-11-03T16:50:12.835Z,10.90
2018-11-03T16:52:42.272Z,10.80
2018-11-03T16:55:12.378Z,10.80
2018-11-03T16:57:41.795Z,10.80
2018-11-03T17:00:14.083Z,10.90
2018-11-03T17:02:43.463Z,10.90
2018-11-03T17:05:13.860Z,10.70
2018-11-03T17:07:43.104Z,10.80
2018-11-03T17:10:13.913Z,10.90
2018-11-03T17:12:44.388Z,10.80
2018-11-03T17:15:14.171Z,10.80
2018-11-03T17:17:43.467Z,10.80
2018-11-03T17:20:12.948Z,10.80
2018-11-03T17:22:42.272Z,10.80
2018-11-03T17:25:12.256Z,10.70
2018-11-03T17:27:41.486Z,10.70
2018-11-03T17:30:13.304Z,10.70
2018-11-03T17:32:42.812Z,10.80
2018-11-03T17:35:12.303Z,10.70
2018-11-03T17:37:41.762Z,10.80
2018-11-03T17:40:11.552Z,10.80
2018-11-03T17:42:40.670Z,10.80
2018-11-03T17:45:10.973Z,10.80
2018-11-03T17:47:40.200Z,10.80
2018-11-03T17:50:10.992Z,10.70
2018-11-03T17:52:40.500Z,10.60
2018-11-03T17:55:10.328Z,10.60
2018-11-03T17:57:39.743Z,10.60
2018-11-03T18:00:12.051Z,10.60
2018-11-03T18:02:41.315Z,10.60
2018-11-03T18:05:10.778Z,10.70
2018-11-03T18:07:40.252Z,10.70
2018-11-03T18:10:10.912Z,10.60
2018-11-03T18:12:40.036Z,10.70
2018-11-03T18:15:09.923Z,10.60
2018-11-03T18:17:39.263Z,10.60
2018-11-03T18:20:09.441Z,10.60
2018-11-03T18:22:38.885Z,10.60
2018-11-03T18:25:08.259Z,10.70
2018-11-03T18:27:37.547Z,10.70
2018-11-03T18:30:08.390Z,10.70
2018-11-03T18:32:37.519Z,10.60
2018-11-03T18:35:07.099Z,10.50
2018-11-03T18:37:36.257Z,10.60
2018-11-03T18:40:05.795Z,10.60
2018-11-03T18:42:35.075Z,10.50
2018-11-03T18:45:04.532Z,10.60
2018-11-03T18:47:33.731Z,10.60
2018-11-03T18:50:03.101Z,10.60
2018-11-03T18:52:32.445Z,10.50
2018-11-03T18:55:01.731Z,10.50
2018-11-03T18:57:30.913Z,10.50
2018-11-03T19:00:00.238Z,10.50
2018-11-03T19:02:29.570Z,10.60
2018-11-03T19:04:58.700Z,10.60
2018-11-03T19:07:27.823Z,10.60
2018-11-03T19:09:56.988Z,10.50
2018-11-03T19:12:26.109Z,10.60
2018-11-03T19:14:55.283Z,10.60
2018-11-03T19:17:24.407Z,10.60
2018-11-03T19:19:53.560Z,10.50
2018-11-03T19:22:22.797Z,10.50
2018-11-03T19:24:51.961Z,10.60
2018-11-03T19:27:21.299Z,10.60
2018-11-03T19:29:51.505Z,10.60
2018-11-03T19:32:20.672Z,10.60
2018-11-03T19:34:49.867Z,10.60
2018-11-03T19:37:19.091Z,10.60
2018-11-03T19:39:48.202Z,10.60
2018-11-03T19:42:17.471Z,10.50
2018-11-03T19:44:46.583Z,10.60
2018-11-03T19:47:15.795Z,10.50
2018-11-03T19:49:44.969Z,10.50
2018-11-03T19:52:14.086Z,10.50
2018-11-03T19:54:43.262Z,10.40
2018-11-03T19:57:12.365Z,10.40
2018-11-03T19:59:41.656Z,10.60
2018-11-03T20:02:10.875Z,10.50
2018-11-03T20:04:40.191Z,10.50
2018-11-03T20:07:09.578Z,10.50
2018-11-03T20:09:38.884Z,10.50
2018-11-03T20:12:08.410Z,10.50
2018-11-03T20:14:37.700Z,10.50
2018-11-03T20:17:06.853Z,10.50
2018-11-03T20:19:35.986Z,10.60
2018-11-03T20:22:05.248Z,10.40
2018-11-03T20:24:34.500Z,10.50
2018-11-03T20:27:03.643Z,10.40
2018-11-03T20:29:32.775Z,10.40
2018-11-03T20:32:02.108Z,10.40
2018-11-03T20:34:31.471Z,10.40
2018-11-03T20:37:00.871Z,10.40
2018-11-03T20:39:30.047Z,10.50
2018-11-03T20:41:59.262Z,10.40
2018-11-03T20:44:28.339Z,10.50
2018-11-03T20:46:57.460Z,10.50
2018-11-03T20:49:26.644Z,10.40
2018-11-03T20:51:55.860Z,10.50
2018-11-03T20:54:25.020Z,10.40
2018-11-03T20:56:54.136Z,10.40
2018-11-03T20:59:23.330Z,10.30
2018-11-03T21:01:52.450Z,10.40
2018-11-03T21:04:21.735Z,10.30
2018-11-03T21:06:51.109Z,10.30
2018-11-03T21:09:20.343Z,10.40
2018-11-03T21:11:49.611Z,10.40
2018-11-03T21:14:18.839Z,10.40
2018-11-03T21:16:48.035Z,10.40
2018-11-03T21:19:17.331Z,10.40
2018-11-03T21:21:46.539Z,10.40
2018-11-03T21:24:15.856Z,10.50
2018-11-03T21:26:45.131Z,10.60
2018-11-03T21:29:14.504Z,10.60
2018-11-03T21:31:43.740Z,10.50
2018-11-03T21:34:13.010Z,10.50
2018-11-03T21:36:42.223Z,10.40
2018-11-03T21:39:11.967Z,10.40
2018-11-03T21:41:41.150Z,10.40
2018-11-03T21:44:10.283Z,10.40
2018-11-03T21:46:39.516Z,10.30
2018-11-03T21:49:08.574Z,10.30
2018-11-03T21:51:37.719Z,10.40
2018-11-03T21:54:06.971Z,10.40
2018-11-03T21:56:36.314Z,10.30
2018-11-03T21:59:05.788Z,10.20
2018-11-03T22:01:34.922Z,10.20
2018-11-03T22:04:04.193Z,10.30
2018-11-03T22:06:33.417Z,10.40
2018-11-03T22:09:02.756Z,10.30
2018-11-03T22:11:32.111Z,10.40
2018-11-03T22:14:01.385Z,10.30
2018-11-03T22:16:30.712Z,10.30
2018-11-03T22:19:00.128Z,10.20
2018-11-03T22:21:30.122Z,10.20
2018-11-03T22:23:59.533Z,10.30
2018-11-03T22:26:28.705Z,10.30
2018-11-03T22:28:57.827Z,10.20
2018-11-03T22:31:26.997Z,10.40
2018-11-03T22:33:56.128Z,10.40
2018-11-03T22:36:25.323Z,10.50
2018-11-03T22:38:54.487Z,10.40
2018-11-03T22:41:23.583Z,10.30
2018-11-03T22:43:52.783Z,10.30
2018-11-03T22:46:22.011Z,10.30
2018-11-03T22:48:51.171Z,10.20
2018-11-03T22:51:20.568Z,10.20
2018-11-03T22:53:49.807Z,10.30
2018-11-03T22:56:19.071Z,10.30
2018-11-03T22:58:48.201Z,10.40
2018-11-03T23:01:17.362Z,10.40
2018-11-03T23:03:46.466Z,10.30
2018-11-03T23:06:15.587Z,10.30
2018-11-03T23:08:44.739Z,10.30
2018-11-03T23:11:13.855Z,10.30
2018-11-03T23:13:43.083Z,10.30
2018-11-03T23:16:12.323Z,10.40
2018-11-03T23:18:42.060Z,10.30
2018-11-03T23:21:11.280Z,10.30
2018-11-03T23:23:40.479Z,10.30
2018-11-03T23:26:09.747Z,10.30
2018-11-03T23:28:38.996Z,10.40
2018-11-03T23:31:08.343Z,10.40
2018-11-03T23:33:37.588Z,10.20
2018-11-03T23:36:06.752Z,10.30
2018-11-03T23:38:35.968Z,10.30
2018-11-03T23:41:05.256Z,10.30
2018-11-03T23:43:34.363Z,10.30
2018-11-03T23:46:03.567Z,10.20
2018-11-03T23:48:32.737Z,10.30
2018-11-03T23:51:01.964Z,10.20
2018-11-03T23:53:31.328Z,10.30
2018-11-03T23:56:00.566Z,10.20
2018-11-03T23:58:29.834Z,10.30
